Bureau, Illinois
Current Conditions -  °F | °C
As of 11:55 AM on Wednesday 28 Jan 2015 (Local Time) from KVYS Reporting Station
Clear Clear  
Wind Chill: 22°   Ceiling: Unl
Heat Index: 32°   Visibility: 10mi
Dew Point: 22°   Wind: 15mph
Humidity: 66%   Direction: 150°SSE
Pressure: 30.15"   Gusts: NA
Location:  41.29°N, 89.37°W
Report Text: KVYS 281755Z AUTO 15013KT 10SM CLR 00/M05 A3015 RMK AO2 T00011055 10001 21053
Loading
Personal Weather Stations






























Interactive Weather Map New forecast layout! Learn more

10-Day Weather Forecast

Advertisements
Track Severe Weather on mobile